sensor_id;sensor_type;location;lat;lon;timestamp;temperature;humidity
66271;DHT22;53063;39.614;8.814;2022-08-21T00:02:26;23.30;74.10
66271;DHT22;53063;39.614;8.814;2022-08-21T00:04:52;23.20;74.20
66271;DHT22;53063;39.614;8.814;2022-08-21T00:07:19;23.00;74.80
66271;DHT22;53063;39.614;8.814;2022-08-21T00:09:46;22.90;75.20
66271;DHT22;53063;39.614;8.814;2022-08-21T00:12:12;22.80;75.70
66271;DHT22;53063;39.614;8.814;2022-08-21T00:14:39;22.70;75.90
66271;DHT22;53063;39.614;8.814;2022-08-21T00:17:06;22.60;76.10
66271;DHT22;53063;39.614;8.814;2022-08-21T00:19:32;22.70;76.60
66271;DHT22;53063;39.614;8.814;2022-08-21T00:21:59;22.40;77.10
66271;DHT22;53063;39.614;8.814;2022-08-21T00:24:25;22.30;78.00
66271;DHT22;53063;39.614;8.814;2022-08-21T00:26:52;22.20;78.50
66271;DHT22;53063;39.614;8.814;2022-08-21T00:29:18;22.20;78.70
66271;DHT22;53063;39.614;8.814;2022-08-21T00:31:45;22.10;78.80
66271;DHT22;53063;39.614;8.814;2022-08-21T00:34:12;22.10;79.10
66271;DHT22;53063;39.614;8.814;2022-08-21T00:36:39;22.00;79.10
66271;DHT22;53063;39.614;8.814;2022-08-21T00:39:07;21.90;79.40
66271;DHT22;53063;39.614;8.814;2022-08-21T00:41:35;21.90;79.80
66271;DHT22;53063;39.614;8.814;2022-08-21T00:44:03;21.90;79.70
66271;DHT22;53063;39.614;8.814;2022-08-21T00:46:29;21.80;79.80
66271;DHT22;53063;39.614;8.814;2022-08-21T00:48:56;21.80;80.20
66271;DHT22;53063;39.614;8.814;2022-08-21T00:51:28;21.70;80.00
66271;DHT22;53063;39.614;8.814;2022-08-21T00:54:01;21.70;80.50
66271;DHT22;53063;39.614;8.814;2022-08-21T00:56:27;21.70;80.40
66271;DHT22;53063;39.614;8.814;2022-08-21T00:58:56;21.80;80.10
66271;DHT22;53063;39.614;8.814;2022-08-21T01:01:23;21.70;80.20
66271;DHT22;53063;39.614;8.814;2022-08-21T01:03:49;21.70;80.50
66271;DHT22;53063;39.614;8.814;2022-08-21T01:06:15;21.70;80.80
66271;DHT22;53063;39.614;8.814;2022-08-21T01:08:42;21.70;80.80
66271;DHT22;53063;39.614;8.814;2022-08-21T01:11:08;21.60;81.00
66271;DHT22;53063;39.614;8.814;2022-08-21T01:13:35;21.60;81.20
66271;DHT22;53063;39.614;8.814;2022-08-21T01:16:04;21.60;81.50
66271;DHT22;53063;39.614;8.814;2022-08-21T01:18:33;21.60;81.30
66271;DHT22;53063;39.614;8.814;2022-08-21T01:21:14;21.60;81.10
66271;DHT22;53063;39.614;8.814;2022-08-21T01:23:43;21.40;81.30
66271;DHT22;53063;39.614;8.814;2022-08-21T01:26:11;21.40;81.70
66271;DHT22;53063;39.614;8.814;2022-08-21T01:28:42;21.30;81.80
66271;DHT22;53063;39.614;8.814;2022-08-21T01:31:12;21.30;82.00
66271;DHT22;53063;39.614;8.814;2022-08-21T01:33:39;21.40;81.30
66271;DHT22;53063;39.614;8.814;2022-08-21T01:36:06;21.40;81.10
66271;DHT22;53063;39.614;8.814;2022-08-21T01:38:32;21.40;80.90
66271;DHT22;53063;39.614;8.814;2022-08-21T01:40:58;21.50;80.90
66271;DHT22;53063;39.614;8.814;2022-08-21T01:43:24;21.50;80.40
66271;DHT22;53063;39.614;8.814;2022-08-21T01:45:50;21.40;80.60
66271;DHT22;53063;39.614;8.814;2022-08-21T01:48:16;21.40;80.90
66271;DHT22;53063;39.614;8.814;2022-08-21T01:50:42;21.40;80.80
66271;DHT22;53063;39.614;8.814;2022-08-21T01:53:08;21.50;80.60
66271;DHT22;53063;39.614;8.814;2022-08-21T01:55:34;21.50;80.70
66271;DHT22;53063;39.614;8.814;2022-08-21T01:58:00;21.50;80.50
66271;DHT22;53063;39.614;8.814;2022-08-21T02:00:26;21.40;80.80
66271;DHT22;53063;39.614;8.814;2022-08-21T02:02:52;21.50;80.90
66271;DHT22;53063;39.614;8.814;2022-08-21T02:05:18;21.50;80.70
66271;DHT22;53063;39.614;8.814;2022-08-21T02:07:48;21.40;80.30
66271;DHT22;53063;39.614;8.814;2022-08-21T02:10:21;21.40;80.70
66271;DHT22;53063;39.614;8.814;2022-08-21T02:12:48;21.40;80.70
66271;DHT22;53063;39.614;8.814;2022-08-21T02:15:15;21.30;81.00
66271;DHT22;53063;39.614;8.814;2022-08-21T02:17:48;21.40;80.90
66271;DHT22;53063;39.614;8.814;2022-08-21T02:20:19;21.30;81.00
66271;DHT22;53063;39.614;8.814;2022-08-21T02:22:46;21.20;81.20
66271;DHT22;53063;39.614;8.814;2022-08-21T02:25:12;21.20;81.50
66271;DHT22;53063;39.614;8.814;2022-08-21T02:27:40;21.20;81.50
66271;DHT22;53063;39.614;8.814;2022-08-21T02:30:12;21.20;81.70
66271;DHT22;53063;39.614;8.814;2022-08-21T02:32:39;21.30;81.60
66271;DHT22;53063;39.614;8.814;2022-08-21T02:35:06;21.20;81.50
66271;DHT22;53063;39.614;8.814;2022-08-21T02:37:32;21.20;81.90
66271;DHT22;53063;39.614;8.814;2022-08-21T02:40:00;21.20;81.70
66271;DHT22;53063;39.614;8.814;2022-08-21T02:42:26;21.20;81.80
66271;DHT22;53063;39.614;8.814;2022-08-21T02:44:52;21.20;81.70
66271;DHT22;53063;39.614;8.814;2022-08-21T02:47:18;21.20;81.60
66271;DHT22;53063;39.614;8.814;2022-08-21T02:49:44;21.30;81.60
66271;DHT22;53063;39.614;8.814;2022-08-21T02:52:10;21.30;81.30
66271;DHT22;53063;39.614;8.814;2022-08-21T02:54:37;21.30;81.40
66271;DHT22;53063;39.614;8.814;2022-08-21T02:57:03;21.20;81.40
66271;DHT22;53063;39.614;8.814;2022-08-21T02:59:29;21.20;81.50
66271;DHT22;53063;39.614;8.814;2022-08-21T03:01:55;21.30;81.40
66271;DHT22;53063;39.614;8.814;2022-08-21T03:04:21;21.30;81.00
66271;DHT22;53063;39.614;8.814;2022-08-21T03:06:47;21.40;80.80
66271;DHT22;53063;39.614;8.814;2022-08-21T03:09:13;21.30;80.70
66271;DHT22;53063;39.614;8.814;2022-08-21T03:11:39;21.30;80.90
66271;DHT22;53063;39.614;8.814;2022-08-21T03:14:05;21.30;81.10
66271;DHT22;53063;39.614;8.814;2022-08-21T03:16:31;21.30;81.40
66271;DHT22;53063;39.614;8.814;2022-08-21T03:18:57;21.30;81.60
66271;DHT22;53063;39.614;8.814;2022-08-21T03:21:23;21.20;81.50
66271;DHT22;53063;39.614;8.814;2022-08-21T03:23:49;21.10;81.80
66271;DHT22;53063;39.614;8.814;2022-08-21T03:26:15;21.10;82.50
66271;DHT22;53063;39.614;8.814;2022-08-21T03:28:41;21.10;82.80
66271;DHT22;53063;39.614;8.814;2022-08-21T03:31:07;21.10;82.90
66271;DHT22;53063;39.614;8.814;2022-08-21T03:33:34;21.10;83.10
66271;DHT22;53063;39.614;8.814;2022-08-21T03:36:03;21.00;83.40
66271;DHT22;53063;39.614;8.814;2022-08-21T03:38:31;20.90;83.70
66271;DHT22;53063;39.614;8.814;2022-08-21T03:40:58;20.90;83.90
66271;DHT22;53063;39.614;8.814;2022-08-21T03:43:24;20.80;84.10
66271;DHT22;53063;39.614;8.814;2022-08-21T03:45:51;20.70;84.20
66271;DHT22;53063;39.614;8.814;2022-08-21T03:48:17;20.80;84.20
66271;DHT22;53063;39.614;8.814;2022-08-21T03:50:43;20.90;84.20
66271;DHT22;53063;39.614;8.814;2022-08-21T03:53:13;21.00;84.00
66271;DHT22;53063;39.614;8.814;2022-08-21T03:55:39;21.00;83.60
66271;DHT22;53063;39.614;8.814;2022-08-21T03:58:06;20.80;83.70
66271;DHT22;53063;39.614;8.814;2022-08-21T04:00:32;20.80;84.10
66271;DHT22;53063;39.614;8.814;2022-08-21T04:02:58;20.80;84.50
66271;DHT22;53063;39.614;8.814;2022-08-21T04:05:24;20.80;84.60
66271;DHT22;53063;39.614;8.814;2022-08-21T04:07:55;20.90;84.80
66271;DHT22;53063;39.614;8.814;2022-08-21T04:10:21;20.80;85.00
66271;DHT22;53063;39.614;8.814;2022-08-21T04:12:49;20.80;85.20
66271;DHT22;53063;39.614;8.814;2022-08-21T04:15:15;20.90;85.40
66271;DHT22;53063;39.614;8.814;2022-08-21T04:17:41;21.00;85.60
66271;DHT22;53063;39.614;8.814;2022-08-21T04:20:07;21.10;85.60
66271;DHT22;53063;39.614;8.814;2022-08-21T04:22:33;21.20;85.40
66271;DHT22;53063;39.614;8.814;2022-08-21T04:24:59;21.20;84.90
66271;DHT22;53063;39.614;8.814;2022-08-21T04:27:25;21.20;85.00
66271;DHT22;53063;39.614;8.814;2022-08-21T04:29:51;21.30;85.10
66271;DHT22;53063;39.614;8.814;2022-08-21T04:32:24;21.30;84.80
66271;DHT22;53063;39.614;8.814;2022-08-21T04:34:50;21.40;84.60
66271;DHT22;53063;39.614;8.814;2022-08-21T04:37:16;21.40;84.50
66271;DHT22;53063;39.614;8.814;2022-08-21T04:39:42;21.40;84.20
66271;DHT22;53063;39.614;8.814;2022-08-21T04:42:08;21.40;84.20
66271;DHT22;53063;39.614;8.814;2022-08-21T04:44:34;21.40;84.30
66271;DHT22;53063;39.614;8.814;2022-08-21T04:47:00;21.40;84.20
66271;DHT22;53063;39.614;8.814;2022-08-21T04:49:26;21.50;84.20
66271;DHT22;53063;39.614;8.814;2022-08-21T04:51:52;21.50;84.00
66271;DHT22;53063;39.614;8.814;2022-08-21T04:54:20;21.60;83.80
66271;DHT22;53063;39.614;8.814;2022-08-21T04:56:52;21.60;83.70
66271;DHT22;53063;39.614;8.814;2022-08-21T04:59:28;21.60;83.80
66271;DHT22;53063;39.614;8.814;2022-08-21T05:01:56;21.70;83.70
66271;DHT22;53063;39.614;8.814;2022-08-21T05:04:26;21.70;83.60
66271;DHT22;53063;39.614;8.814;2022-08-21T05:06:58;21.70;83.70
66271;DHT22;53063;39.614;8.814;2022-08-21T05:09:26;21.60;83.50
66271;DHT22;53063;39.614;8.814;2022-08-21T05:11:53;21.60;83.70
66271;DHT22;53063;39.614;8.814;2022-08-21T05:14:20;21.70;83.80
66271;DHT22;53063;39.614;8.814;2022-08-21T05:16:46;21.80;83.70
66271;DHT22;53063;39.614;8.814;2022-08-21T05:19:13;21.80;83.50
66271;DHT22;53063;39.614;8.814;2022-08-21T05:21:44;21.90;83.40
66271;DHT22;53063;39.614;8.814;2022-08-21T05:24:11;22.00;83.10
66271;DHT22;53063;39.614;8.814;2022-08-21T05:26:37;21.80;83.40
66271;DHT22;53063;39.614;8.814;2022-08-21T05:29:04;21.90;83.60
66271;DHT22;53063;39.614;8.814;2022-08-21T05:31:30;22.00;83.40
66271;DHT22;53063;39.614;8.814;2022-08-21T05:33:56;22.20;83.10
66271;DHT22;53063;39.614;8.814;2022-08-21T05:36:22;22.30;82.90
66271;DHT22;53063;39.614;8.814;2022-08-21T05:38:48;22.40;82.70
66271;DHT22;53063;39.614;8.814;2022-08-21T05:41:14;22.50;82.50
66271;DHT22;53063;39.614;8.814;2022-08-21T05:43:40;22.50;82.20
66271;DHT22;53063;39.614;8.814;2022-08-21T05:46:07;22.60;82.10
66271;DHT22;53063;39.614;8.814;2022-08-21T05:48:35;22.70;81.70
66271;DHT22;53063;39.614;8.814;2022-08-21T05:51:06;22.90;81.30
66271;DHT22;53063;39.614;8.814;2022-08-21T05:53:33;23.00;81.00
66271;DHT22;53063;39.614;8.814;2022-08-21T05:55:59;22.90;80.90
66271;DHT22;53063;39.614;8.814;2022-08-21T05:58:25;23.10;80.80
66271;DHT22;53063;39.614;8.814;2022-08-21T06:00:51;23.30;80.30
66271;DHT22;53063;39.614;8.814;2022-08-21T06:03:27;23.50;79.60
66271;DHT22;53063;39.614;8.814;2022-08-21T06:05:54;23.60;78.90
66271;DHT22;53063;39.614;8.814;2022-08-21T06:08:22;23.70;78.30
66271;DHT22;53063;39.614;8.814;2022-08-21T06:10:49;23.90;78.00
66271;DHT22;53063;39.614;8.814;2022-08-21T06:13:17;24.40;76.80
66271;DHT22;53063;39.614;8.814;2022-08-21T06:15:43;24.40;76.00
66271;DHT22;53063;39.614;8.814;2022-08-21T06:18:10;24.50;75.80
66271;DHT22;53063;39.614;8.814;2022-08-21T06:20:36;24.50;75.70
66271;DHT22;53063;39.614;8.814;2022-08-21T06:23:02;24.70;75.30
66271;DHT22;53063;39.614;8.814;2022-08-21T06:25:29;24.70;75.10
66271;DHT22;53063;39.614;8.814;2022-08-21T06:28:08;24.90;74.70
66271;DHT22;53063;39.614;8.814;2022-08-21T06:30:36;25.00;74.20
66271;DHT22;53063;39.614;8.814;2022-08-21T06:33:03;25.20;73.70
66271;DHT22;53063;39.614;8.814;2022-08-21T06:35:30;25.40;73.00
66271;DHT22;53063;39.614;8.814;2022-08-21T06:37:57;25.50;72.70
66271;DHT22;53063;39.614;8.814;2022-08-21T06:40:23;25.70;73.00
66271;DHT22;53063;39.614;8.814;2022-08-21T06:42:49;25.80;72.80
66271;DHT22;53063;39.614;8.814;2022-08-21T06:45:15;25.90;72.70
66271;DHT22;53063;39.614;8.814;2022-08-21T06:47:41;26.00;72.60
66271;DHT22;53063;39.614;8.814;2022-08-21T06:50:07;26.20;72.70
66271;DHT22;53063;39.614;8.814;2022-08-21T06:52:37;26.20;72.60
66271;DHT22;53063;39.614;8.814;2022-08-21T06:55:08;26.20;72.40
66271;DHT22;53063;39.614;8.814;2022-08-21T06:57:35;26.30;71.40
66271;DHT22;53063;39.614;8.814;2022-08-21T07:00:03;26.40;71.50
66271;DHT22;53063;39.614;8.814;2022-08-21T07:02:30;26.60;71.10
66271;DHT22;53063;39.614;8.814;2022-08-21T07:04:56;26.70;70.30
66271;DHT22;53063;39.614;8.814;2022-08-21T07:07:22;26.80;70.40
66271;DHT22;53063;39.614;8.814;2022-08-21T07:09:48;26.80;70.50
66271;DHT22;53063;39.614;8.814;2022-08-21T07:12:13;26.90;70.50
66271;DHT22;53063;39.614;8.814;2022-08-21T07:14:40;27.00;70.40
66271;DHT22;53063;39.614;8.814;2022-08-21T07:17:06;27.10;70.40
66271;DHT22;53063;39.614;8.814;2022-08-21T07:19:31;27.20;69.60
66271;DHT22;53063;39.614;8.814;2022-08-21T07:22:00;27.30;69.00
66271;DHT22;53063;39.614;8.814;2022-08-21T07:24:27;27.40;68.80
66271;DHT22;53063;39.614;8.814;2022-08-21T07:26:53;27.40;68.70
66271;DHT22;53063;39.614;8.814;2022-08-21T07:29:19;27.60;68.00
66271;DHT22;53063;39.614;8.814;2022-08-21T07:31:45;27.70;68.00
66271;DHT22;53063;39.614;8.814;2022-08-21T07:34:12;27.90;67.50
66271;DHT22;53063;39.614;8.814;2022-08-21T07:36:38;28.00;67.10
66271;DHT22;53063;39.614;8.814;2022-08-21T07:39:04;27.90;67.20
66271;DHT22;53063;39.614;8.814;2022-08-21T07:41:30;28.00;67.10
66271;DHT22;53063;39.614;8.814;2022-08-21T07:43:58;28.20;66.60
66271;DHT22;53063;39.614;8.814;2022-08-21T07:46:24;28.40;66.20
66271;DHT22;53063;39.614;8.814;2022-08-21T07:48:51;28.40;65.90
66271;DHT22;53063;39.614;8.814;2022-08-21T07:51:18;28.40;65.60
66271;DHT22;53063;39.614;8.814;2022-08-21T07:53:51;28.40;65.00
66271;DHT22;53063;39.614;8.814;2022-08-21T07:56:18;28.10;65.50
66271;DHT22;53063;39.614;8.814;2022-08-21T07:58:44;28.10;65.70
66271;DHT22;53063;39.614;8.814;2022-08-21T08:01:10;28.30;63.90
66271;DHT22;53063;39.614;8.814;2022-08-21T08:03:36;28.70;63.40
66271;DHT22;53063;39.614;8.814;2022-08-21T08:06:02;29.00;60.90
66271;DHT22;53063;39.614;8.814;2022-08-21T08:08:30;29.00;61.40
66271;DHT22;53063;39.614;8.814;2022-08-21T08:10:58;29.20;61.40
66271;DHT22;53063;39.614;8.814;2022-08-21T08:13:25;29.20;61.10
66271;DHT22;53063;39.614;8.814;2022-08-21T08:15:51;29.60;58.60
66271;DHT22;53063;39.614;8.814;2022-08-21T08:18:17;29.60;58.40
66271;DHT22;53063;39.614;8.814;2022-08-21T08:20:43;29.70;59.10
66271;DHT22;53063;39.614;8.814;2022-08-21T08:23:11;29.70;59.70
66271;DHT22;53063;39.614;8.814;2022-08-21T08:25:37;29.90;59.40
66271;DHT22;53063;39.614;8.814;2022-08-21T08:28:05;30.10;58.40
66271;DHT22;53063;39.614;8.814;2022-08-21T08:30:31;30.50;57.10
66271;DHT22;53063;39.614;8.814;2022-08-21T08:32:57;30.50;56.50
66271;DHT22;53063;39.614;8.814;2022-08-21T08:35:24;30.50;56.90
66271;DHT22;53063;39.614;8.814;2022-08-21T08:37:51;30.40;58.00
66271;DHT22;53063;39.614;8.814;2022-08-21T08:40:38;30.60;56.70
66271;DHT22;53063;39.614;8.814;2022-08-21T08:43:06;30.70;55.60
66271;DHT22;53063;39.614;8.814;2022-08-21T08:45:36;30.90;54.30
66271;DHT22;53063;39.614;8.814;2022-08-21T08:48:05;31.00;53.90
66271;DHT22;53063;39.614;8.814;2022-08-21T08:50:54;30.90;55.20
66271;DHT22;53063;39.614;8.814;2022-08-21T08:53:31;30.70;55.70
66271;DHT22;53063;39.614;8.814;2022-08-21T08:56:00;30.90;55.40
66271;DHT22;53063;39.614;8.814;2022-08-21T08:58:39;31.20;54.70
66271;DHT22;53063;39.614;8.814;2022-08-21T09:01:18;30.90;55.00
66271;DHT22;53063;39.614;8.814;2022-08-21T09:03:45;30.20;56.40
66271;DHT22;53063;39.614;8.814;2022-08-21T09:07:01;29.90;57.70
66271;DHT22;53063;39.614;8.814;2022-08-21T09:12:12;30.80;54.00
66271;DHT22;53063;39.614;8.814;2022-08-21T09:23:04;31.00;55.60
66271;DHT22;53063;39.614;8.814;2022-08-21T09:25:45;31.10;54.30
66271;DHT22;53063;39.614;8.814;2022-08-21T09:28:13;31.00;52.30
66271;DHT22;53063;39.614;8.814;2022-08-21T09:30:41;31.60;52.50
66271;DHT22;53063;39.614;8.814;2022-08-21T09:33:09;32.10;52.10
66271;DHT22;53063;39.614;8.814;2022-08-21T09:35:51;32.20;50.80
66271;DHT22;53063;39.614;8.814;2022-08-21T09:38:29;31.70;51.80
66271;DHT22;53063;39.614;8.814;2022-08-21T09:41:04;31.80;51.40
66271;DHT22;53063;39.614;8.814;2022-08-21T09:43:30;32.20;50.90
66271;DHT22;53063;39.614;8.814;2022-08-21T09:46:12;32.60;50.70
66271;DHT22;53063;39.614;8.814;2022-08-21T09:48:48;32.70;48.90
66271;DHT22;53063;39.614;8.814;2022-08-21T09:51:26;32.90;47.50
66271;DHT22;53063;39.614;8.814;2022-08-21T09:54:17;33.10;47.20
66271;DHT22;53063;39.614;8.814;2022-08-21T09:57:45;33.00;46.90
66271;DHT22;53063;39.614;8.814;2022-08-21T10:00:32;32.90;48.70
66271;DHT22;53063;39.614;8.814;2022-08-21T10:03:20;32.50;50.20
66271;DHT22;53063;39.614;8.814;2022-08-21T10:06:07;32.60;47.30
66271;DHT22;53063;39.614;8.814;2022-08-21T10:08:40;32.40;49.80
66271;DHT22;53063;39.614;8.814;2022-08-21T10:11:10;32.40;49.00
66271;DHT22;53063;39.614;8.814;2022-08-21T10:14:05;32.50;49.70
66271;DHT22;53063;39.614;8.814;2022-08-21T10:19:33;32.30;49.00
66271;DHT22;53063;39.614;8.814;2022-08-21T10:24:51;32.80;49.80
66271;DHT22;53063;39.614;8.814;2022-08-21T10:27:50;33.00;47.90
66271;DHT22;53063;39.614;8.814;2022-08-21T10:30:42;33.40;48.20
66271;DHT22;53063;39.614;8.814;2022-08-21T10:39:20;33.60;47.00
66271;DHT22;53063;39.614;8.814;2022-08-21T10:53:01;33.40;46.70
66271;DHT22;53063;39.614;8.814;2022-08-21T10:55:39;33.70;45.80
66271;DHT22;53063;39.614;8.814;2022-08-21T10:58:12;34.20;46.00
66271;DHT22;53063;39.614;8.814;2022-08-21T11:00:53;34.20;46.50
66271;DHT22;53063;39.614;8.814;2022-08-21T11:03:39;33.40;46.40
66271;DHT22;53063;39.614;8.814;2022-08-21T11:06:11;33.90;46.80
66271;DHT22;53063;39.614;8.814;2022-08-21T11:08:42;34.30;46.00
66271;DHT22;53063;39.614;8.814;2022-08-21T11:13:47;34.30;45.80
66271;DHT22;53063;39.614;8.814;2022-08-21T11:16:36;33.90;47.40
66271;DHT22;53063;39.614;8.814;2022-08-21T11:19:17;33.30;45.50
66271;DHT22;53063;39.614;8.814;2022-08-21T11:21:52;32.70;47.80
66271;DHT22;53063;39.614;8.814;2022-08-21T11:29:59;34.10;45.60
66271;DHT22;53063;39.614;8.814;2022-08-21T11:35:47;34.30;45.30
66271;DHT22;53063;39.614;8.814;2022-08-21T11:38:25;34.60;45.10
66271;DHT22;53063;39.614;8.814;2022-08-21T11:43:34;34.80;44.90
66271;DHT22;53063;39.614;8.814;2022-08-21T11:46:13;35.00;44.30
66271;DHT22;53063;39.614;8.814;2022-08-21T11:48:53;33.90;44.90
66271;DHT22;53063;39.614;8.814;2022-08-21T11:51:24;34.30;44.40
66271;DHT22;53063;39.614;8.814;2022-08-21T11:54:20;34.00;45.50
66271;DHT22;53063;39.614;8.814;2022-08-21T11:57:04;34.00;45.30
66271;DHT22;53063;39.614;8.814;2022-08-21T11:59:43;33.90;45.20
66271;DHT22;53063;39.614;8.814;2022-08-21T12:02:15;32.70;47.80
66271;DHT22;53063;39.614;8.814;2022-08-21T12:05:00;33.60;46.50
66271;DHT22;53063;39.614;8.814;2022-08-21T12:07:39;34.00;46.10
66271;DHT22;53063;39.614;8.814;2022-08-21T12:13:26;34.00;45.90
66271;DHT22;53063;39.614;8.814;2022-08-21T12:16:04;34.60;44.70
66271;DHT22;53063;39.614;8.814;2022-08-21T12:18:30;34.20;42.50
66271;DHT22;53063;39.614;8.814;2022-08-21T12:21:05;33.60;45.70
66271;DHT22;53063;39.614;8.814;2022-08-21T12:24:19;34.10;45.40
66271;DHT22;53063;39.614;8.814;2022-08-21T12:26:26;34.40;44.60
66271;DHT22;53063;39.614;8.814;2022-08-21T12:34:30;35.10;42.10
66271;DHT22;53063;39.614;8.814;2022-08-21T12:37:45;34.90;41.90
66271;DHT22;53063;39.614;8.814;2022-08-21T12:39:52;34.80;41.50
66271;DHT22;53063;39.614;8.814;2022-08-21T12:42:29;35.00;43.00
66271;DHT22;53063;39.614;8.814;2022-08-21T12:45:02;35.20;41.10
66271;DHT22;53063;39.614;8.814;2022-08-21T12:50:44;34.90;40.70
66271;DHT22;53063;39.614;8.814;2022-08-21T12:55:57;34.80;39.40
66271;DHT22;53063;39.614;8.814;2022-08-21T12:58:30;34.70;37.40
66271;DHT22;53063;39.614;8.814;2022-08-21T13:01:13;34.70;37.60
66271;DHT22;53063;39.614;8.814;2022-08-21T13:03:43;34.70;37.50
66271;DHT22;53063;39.614;8.814;2022-08-21T13:06:15;34.90;37.30
66271;DHT22;53063;39.614;8.814;2022-08-21T13:08:45;34.70;37.00
66271;DHT22;53063;39.614;8.814;2022-08-21T13:11:16;34.40;36.20
66271;DHT22;53063;39.614;8.814;2022-08-21T13:13:47;34.40;35.80
66271;DHT22;53063;39.614;8.814;2022-08-21T13:16:28;34.40;34.70
66271;DHT22;53063;39.614;8.814;2022-08-21T13:19:05;34.40;34.10
66271;DHT22;53063;39.614;8.814;2022-08-21T13:21:34;34.20;33.90
66271;DHT22;53063;39.614;8.814;2022-08-21T13:24:14;34.20;35.10
66271;DHT22;53063;39.614;8.814;2022-08-21T13:26:41;34.10;35.80
66271;DHT22;53063;39.614;8.814;2022-08-21T13:29:09;33.80;34.40
66271;DHT22;53063;39.614;8.814;2022-08-21T13:31:38;33.90;35.20
66271;DHT22;53063;39.614;8.814;2022-08-21T13:34:05;33.70;34.90
66271;DHT22;53063;39.614;8.814;2022-08-21T13:36:37;33.80;35.20
66271;DHT22;53063;39.614;8.814;2022-08-21T13:39:08;33.70;34.30
66271;DHT22;53063;39.614;8.814;2022-08-21T13:41:37;33.60;34.10
66271;DHT22;53063;39.614;8.814;2022-08-21T13:44:22;33.70;34.40
66271;DHT22;53063;39.614;8.814;2022-08-21T13:46:53;33.70;34.90
66271;DHT22;53063;39.614;8.814;2022-08-21T13:49:23;33.50;33.80
66271;DHT22;53063;39.614;8.814;2022-08-21T13:51:54;33.50;34.70
66271;DHT22;53063;39.614;8.814;2022-08-21T13:56:47;33.00;35.20
66271;DHT22;53063;39.614;8.814;2022-08-21T13:59:27;33.00;34.40
66271;DHT22;53063;39.614;8.814;2022-08-21T14:04:36;32.90;35.40
66271;DHT22;53063;39.614;8.814;2022-08-21T14:07:15;32.90;35.00
66271;DHT22;53063;39.614;8.814;2022-08-21T14:09:43;33.00;35.40
66271;DHT22;53063;39.614;8.814;2022-08-21T14:12:28;33.30;35.60
66271;DHT22;53063;39.614;8.814;2022-08-21T14:14:56;33.10;34.40
66271;DHT22;53063;39.614;8.814;2022-08-21T14:19:53;32.60;35.30
66271;DHT22;53063;39.614;8.814;2022-08-21T14:22:30;32.70;35.40
66271;DHT22;53063;39.614;8.814;2022-08-21T14:25:04;32.80;35.80
66271;DHT22;53063;39.614;8.814;2022-08-21T14:27:33;32.80;35.60
66271;DHT22;53063;39.614;8.814;2022-08-21T14:31:10;32.40;36.00
66271;DHT22;53063;39.614;8.814;2022-08-21T14:32:57;32.10;36.50
66271;DHT22;53063;39.614;8.814;2022-08-21T14:35:24;32.10;36.30
66271;DHT22;53063;39.614;8.814;2022-08-21T14:37:51;32.10;36.00
66271;DHT22;53063;39.614;8.814;2022-08-21T14:40:18;32.20;36.10
66271;DHT22;53063;39.614;8.814;2022-08-21T14:42:45;32.10;36.60
66271;DHT22;53063;39.614;8.814;2022-08-21T14:45:30;32.10;36.80
66271;DHT22;53063;39.614;8.814;2022-08-21T14:47:58;31.90;35.90
66271;DHT22;53063;39.614;8.814;2022-08-21T14:50:25;32.00;37.10
66271;DHT22;53063;39.614;8.814;2022-08-21T14:52:52;31.60;37.10
66271;DHT22;53063;39.614;8.814;2022-08-21T14:55:18;31.60;37.60
66271;DHT22;53063;39.614;8.814;2022-08-21T14:57:47;31.80;36.70
66271;DHT22;53063;39.614;8.814;2022-08-21T15:00:19;31.70;37.60
66271;DHT22;53063;39.614;8.814;2022-08-21T15:02:46;31.80;37.20
66271;DHT22;53063;39.614;8.814;2022-08-21T15:05:12;31.70;36.80
66271;DHT22;53063;39.614;8.814;2022-08-21T15:07:38;31.60;37.20
66271;DHT22;53063;39.614;8.814;2022-08-21T15:10:07;31.30;37.40
66271;DHT22;53063;39.614;8.814;2022-08-21T15:12:33;31.20;37.10
66271;DHT22;53063;39.614;8.814;2022-08-21T15:14:59;31.00;37.90
66271;DHT22;53063;39.614;8.814;2022-08-21T15:17:25;31.10;37.30
66271;DHT22;53063;39.614;8.814;2022-08-21T15:19:51;31.10;37.60
66271;DHT22;53063;39.614;8.814;2022-08-21T15:22:17;31.10;37.80
66271;DHT22;53063;39.614;8.814;2022-08-21T15:24:43;31.10;37.50
66271;DHT22;53063;39.614;8.814;2022-08-21T15:27:10;31.00;36.90
66271;DHT22;53063;39.614;8.814;2022-08-21T15:29:36;30.80;37.80
66271;DHT22;53063;39.614;8.814;2022-08-21T15:32:19;30.80;38.20
66271;DHT22;53063;39.614;8.814;2022-08-21T15:34:45;30.90;38.60
66271;DHT22;53063;39.614;8.814;2022-08-21T15:37:11;30.80;38.20
66271;DHT22;53063;39.614;8.814;2022-08-21T15:39:37;30.80;38.30
66271;DHT22;53063;39.614;8.814;2022-08-21T15:42:04;30.90;38.70
66271;DHT22;53063;39.614;8.814;2022-08-21T15:44:30;30.80;37.80
66271;DHT22;53063;39.614;8.814;2022-08-21T15:46:57;30.60;38.10
66271;DHT22;53063;39.614;8.814;2022-08-21T15:49:24;30.60;38.20
66271;DHT22;53063;39.614;8.814;2022-08-21T15:51:51;30.70;38.50
66271;DHT22;53063;39.614;8.814;2022-08-21T15:54:17;30.60;38.30
66271;DHT22;53063;39.614;8.814;2022-08-21T15:56:46;30.40;39.00
66271;DHT22;53063;39.614;8.814;2022-08-21T15:59:16;30.30;39.40
66271;DHT22;53063;39.614;8.814;2022-08-21T16:01:44;30.20;39.60
66271;DHT22;53063;39.614;8.814;2022-08-21T16:04:15;30.10;40.30
66271;DHT22;53063;39.614;8.814;2022-08-21T16:06:44;29.90;40.10
66271;DHT22;53063;39.614;8.814;2022-08-21T16:09:10;29.90;40.60
66271;DHT22;53063;39.614;8.814;2022-08-21T16:11:36;29.90;40.60
66271;DHT22;53063;39.614;8.814;2022-08-21T16:14:04;29.90;41.40
66271;DHT22;53063;39.614;8.814;2022-08-21T16:16:30;29.80;41.90
66271;DHT22;53063;39.614;8.814;2022-08-21T16:18:59;29.80;41.60
66271;DHT22;53063;39.614;8.814;2022-08-21T16:21:25;29.80;42.10
66271;DHT22;53063;39.614;8.814;2022-08-21T16:23:51;29.80;42.40
66271;DHT22;53063;39.614;8.814;2022-08-21T16:26:17;29.70;42.80
66271;DHT22;53063;39.614;8.814;2022-08-21T16:28:43;29.80;43.40
66271;DHT22;53063;39.614;8.814;2022-08-21T16:31:11;29.60;44.00
66271;DHT22;53063;39.614;8.814;2022-08-21T16:33:43;29.60;44.40
66271;DHT22;53063;39.614;8.814;2022-08-21T16:36:10;29.40;44.10
66271;DHT22;53063;39.614;8.814;2022-08-21T16:38:37;29.50;44.30
66271;DHT22;53063;39.614;8.814;2022-08-21T16:41:10;29.40;44.90
66271;DHT22;53063;39.614;8.814;2022-08-21T16:43:38;29.30;45.40
66271;DHT22;53063;39.614;8.814;2022-08-21T16:46:07;29.20;45.90
66271;DHT22;53063;39.614;8.814;2022-08-21T16:48:34;29.00;46.50
66271;DHT22;53063;39.614;8.814;2022-08-21T16:51:00;29.00;47.20
66271;DHT22;53063;39.614;8.814;2022-08-21T16:53:26;29.10;47.80
66271;DHT22;53063;39.614;8.814;2022-08-21T16:55:53;28.90;47.40
66271;DHT22;53063;39.614;8.814;2022-08-21T16:58:29;28.80;47.80